Aviation Digital Data Service (ADDS)

Output produced by METARs form (1943 UTC 28 March 2017)
found at http://www.aviationweather.gov/adds/metars/
 
METAR text: KSBP 281856Z 01012KT 330V030 10SM CLR 21/06 A3015 RMK AO2 SLP210 T02060061
Conditions at: KSBP (SAN LUIS OBISPO , CA, US) observed 1856 UTC 28 March 2017
Temperature: 20.6°C (69°F)
Dewpoint: 6.1°C (43°F) [RH = 39%]
Pressure (altimeter): 30.15 inches Hg (1021.1 mb)
[Sea-level pressure: 1021.0 mb]
Winds: from the N (10 degrees) at 14 MPH (12 knots; 6.2 m/s)
Visibility: 10 or more miles (16+ km)
Ceiling: at least 12,000 feet AGL
Clouds: sky clear below 12,000 feet AGL
Weather: no significant weather observed at this time

METAR text: KSBP 281756Z 35008KT 10SM CLR 19/07 A3017 RMK AO2 SLP215 T01890072 10189 20117 58006
Conditions at: KSBP (SAN LUIS OBISPO , CA, US) observed 1756 UTC 28 March 2017
Temperature: 18.9°C (66°F)
Dewpoint: 7.2°C (45°F) [RH = 47%]
Pressure (altimeter): 30.17 inches Hg (1021.8 mb)
[Sea-level pressure: 1021.5 mb]
Winds: from the N (350 degrees) at 9 MPH (8 knots; 4.2 m/s)
Visibility: 10 or more miles (16+ km)
Ceiling: at least 12,000 feet AGL
Clouds: sky clear below 12,000 feet AGL
Weather: no significant weather observed at this time

METAR text: KSBP 281656Z 01008KT 10SM CLR 17/07 A3018 RMK AO2 SLP220 T01670072
Conditions at: KSBP (SAN LUIS OBISPO , CA, US) observed 1656 UTC 28 March 2017
Temperature: 16.7°C (62°F)
Dewpoint: 7.2°C (45°F) [RH = 53%]
Pressure (altimeter): 30.18 inches Hg (1022.1 mb)
[Sea-level pressure: 1022.0 mb]
Winds: from the N (10 degrees) at 9 MPH (8 knots; 4.2 m/s)
Visibility: 10 or more miles (16+ km)
Ceiling: at least 12,000 feet AGL
Clouds: sky clear below 12,000 feet AGL
Weather: no significant weather observed at this time

METAR text: KSBP 281556Z 36008KT 320V020 10SM CLR 15/07 A3018 RMK AO2 SLP220 T01500072
Conditions at: KSBP (SAN LUIS OBISPO , CA, US) observed 1556 UTC 28 March 2017
Temperature: 15.0°C (59°F)
Dewpoint: 7.2°C (45°F) [RH = 60%]
Pressure (altimeter): 30.18 inches Hg (1022.1 mb)
[Sea-level pressure: 1022.0 mb]
Winds: from the N (360 degrees) at 9 MPH (8 knots; 4.2 m/s)
Visibility: 10 or more miles (16+ km)
Ceiling: at least 12,000 feet AGL
Clouds: sky clear below 12,000 feet AGL
Weather: no significant weather observed at this time

METAR text: KSBP 281456Z 35012KT 10SM CLR 12/07 A3019 RMK AO2 SLP222 T01220067 53015
Conditions at: KSBP (SAN LUIS OBISPO , CA, US) observed 1456 UTC 28 March 2017
Temperature: 12.2°C (54°F)
Dewpoint: 6.7°C (44°F) [RH = 69%]
Pressure (altimeter): 30.19 inches Hg (1022.4 mb)
[Sea-level pressure: 1022.2 mb]
Winds: from the N (350 degrees) at 14 MPH (12 knots; 6.2 m/s)
Visibility: 10 or more miles (16+ km)
Ceiling: at least 12,000 feet AGL
Clouds: sky clear below 12,000 feet AGL
Weather: no significant weather observed at this time

METAR text: KSBP 281356Z 02008KT 10SM CLR 12/07 A3016 RMK AO2 SLP212 T01220067
Conditions at: KSBP (SAN LUIS OBISPO , CA, US) observed 1356 UTC 28 March 2017
Temperature: 12.2°C (54°F)
Dewpoint: 6.7°C (44°F) [RH = 69%]
Pressure (altimeter): 30.16 inches Hg (1021.4 mb)
[Sea-level pressure: 1021.2 mb]
Winds: from the NNE (20 degrees) at 9 MPH (8 knots; 4.2 m/s)
Visibility: 10 or more miles (16+ km)
Ceiling: at least 12,000 feet AGL
Clouds: sky clear below 12,000 feet AGL
Weather: no significant weather observed at this time

METAR text: KSBP 281256Z 33011KT 10SM CLR 12/07 A3015 RMK AO2 SLP209 T01220067
Conditions at: KSBP (SAN LUIS OBISPO , CA, US) observed 1256 UTC 28 March 2017
Temperature: 12.2°C (54°F)
Dewpoint: 6.7°C (44°F) [RH = 69%]
Pressure (altimeter): 30.15 inches Hg (1021.1 mb)
[Sea-level pressure: 1020.9 mb]
Winds: from the NNW (330 degrees) at 13 MPH (11 knots; 5.7 m/s)
Visibility: 10 or more miles (16+ km)
Ceiling: at least 12,000 feet AGL
Clouds: sky clear below 12,000 feet AGL
Weather: no significant weather observed at this time

METAR text: KSBP 281156Z AUTO 34009KT 10SM CLR 12/07 A3014 RMK AO2 SLP207 T01220067 10144 20117 56008
Conditions at: KSBP (SAN LUIS OBISPO , CA, US) observed 1156 UTC 28 March 2017
Temperature: 12.2°C (54°F)
Dewpoint: 6.7°C (44°F) [RH = 69%]
Pressure (altimeter): 30.14 inches Hg (1020.7 mb)
[Sea-level pressure: 1020.7 mb]
Winds: from the NNW (340 degrees) at 10 MPH (9 knots; 4.7 m/s)
Visibility: 10 or more miles (16+ km)
Ceiling: at least 12,000 feet AGL
Clouds: sky clear below 12,000 feet AGL
Weather: automated observation with no human augmentation;
there may or may not be significant weather present at this time